createdAt,value
2018-10-09T00:00:11.790Z,9.80
2018-10-09T00:05:09.211Z,9.80
2018-10-09T00:07:38.087Z,9.80
2018-10-09T00:17:32.735Z,9.60
2018-10-09T00:20:01.619Z,9.70
2018-10-09T00:24:59.048Z,9.70
2018-10-09T00:34:53.678Z,9.60
2018-10-09T00:39:51.342Z,9.60
2018-10-09T00:47:17.297Z,9.60
2018-10-09T00:52:14.730Z,9.60
2018-10-09T00:54:43.614Z,9.60
2018-10-09T00:57:12.550Z,9.60
2018-10-09T01:09:35.918Z,9.50
2018-10-09T01:12:04.802Z,9.50
2018-10-09T01:14:33.698Z,9.50
2018-10-09T01:17:02.756Z,9.50
2018-10-09T01:19:31.628Z,9.50
2018-10-09T01:29:26.249Z,9.50
2018-10-09T01:59:09.039Z,9.30
2018-10-09T02:01:37.952Z,9.20
2018-10-09T02:06:35.377Z,9.20
2018-10-09T02:14:02.646Z,9.10
2018-10-09T02:16:31.528Z,9.10
2018-10-09T02:19:00.422Z,9.10
2018-10-09T02:21:29.292Z,9.20
2018-10-09T02:26:26.734Z,9.10
2018-10-09T02:33:52.706Z,9.10
2018-10-09T02:36:21.618Z,9.10
2018-10-09T02:38:50.510Z,9.10
2018-10-09T02:41:20.193Z,9.10
2018-10-09T02:46:17.613Z,9.10
2018-10-09T02:51:15.077Z,9.10
2018-10-09T02:53:43.970Z,9.00
2018-10-09T02:58:41.418Z,8.90
2018-10-09T03:03:38.901Z,8.90
2018-10-09T03:08:36.515Z,9.00
2018-10-09T03:11:05.631Z,9.00
2018-10-09T03:13:34.539Z,9.00
2018-10-09T03:16:03.442Z,9.00
2018-10-09T03:18:32.328Z,9.00
2018-10-09T03:23:29.793Z,8.90
2018-10-09T03:38:21.513Z,8.90
2018-10-09T03:40:50.484Z,9.00
2018-10-09T03:45:48.001Z,8.90
2018-10-09T03:48:16.876Z,8.90
2018-10-09T03:55:42.971Z,8.90
2018-10-09T04:03:08.971Z,8.90
2018-10-09T04:05:37.870Z,8.90
2018-10-09T04:08:06.766Z,8.80
2018-10-09T04:15:32.738Z,8.80
2018-10-09T04:18:01.637Z,8.80
2018-10-09T04:22:59.390Z,8.80
2018-10-09T04:27:56.827Z,8.80
2018-10-09T04:32:54.362Z,8.80
2018-10-09T04:37:51.806Z,8.80
2018-10-09T04:40:20.681Z,8.80
2018-10-09T04:42:49.550Z,8.90
2018-10-09T04:45:18.414Z,8.80
2018-10-09T04:47:47.286Z,8.80
2018-10-09T04:52:44.710Z,8.80
2018-10-09T04:55:13.661Z,8.80
2018-10-09T05:05:08.142Z,8.70
2018-10-09T05:15:02.833Z,8.70
2018-10-09T05:17:31.776Z,8.70
2018-10-09T05:20:00.658Z,8.70
2018-10-09T05:22:29.534Z,8.70
2018-10-09T05:27:26.962Z,8.70
2018-10-09T05:32:24.386Z,8.70
2018-10-09T05:34:53.334Z,8.70
2018-10-09T05:39:50.718Z,8.70
2018-10-09T05:42:19.623Z,8.70
2018-10-09T05:44:48.507Z,8.70
2018-10-09T05:47:17.406Z,8.70
2018-10-09T05:52:15.349Z,8.70
2018-10-09T05:54:44.230Z,8.70
2018-10-09T05:59:41.653Z,8.70
2018-10-09T06:02:10.859Z,8.70
2018-10-09T06:07:08.724Z,8.70
2018-10-09T06:09:37.618Z,8.70
2018-10-09T06:14:35.134Z,8.70
2018-10-09T06:19:32.566Z,8.80
2018-10-09T06:24:29.997Z,8.80
2018-10-09T06:26:58.893Z,8.90
2018-10-09T06:36:53.395Z,9.00
2018-10-09T06:41:50.819Z,9.10
2018-10-09T06:44:19.739Z,9.10
2018-10-09T06:46:48.582Z,9.10
2018-10-09T06:49:17.500Z,9.30
2018-10-09T06:54:15.135Z,9.10
2018-10-09T06:56:43.800Z,9.40
2018-10-09T07:01:41.226Z,9.50
2018-10-09T07:06:38.642Z,9.70
2018-10-09T07:09:09.511Z,9.70
2018-10-09T07:11:38.473Z,9.80
2018-10-09T07:16:36.145Z,10.00
2018-10-09T07:19:05.241Z,10.10
2018-10-09T07:28:59.866Z,10.30
2018-10-09T07:31:28.763Z,10.40
2018-10-09T07:38:54.754Z,10.40
2018-10-09T07:46:20.722Z,10.50
2018-10-09T07:48:49.638Z,10.50
2018-10-09T07:51:18.531Z,10.60
2018-10-09T07:53:47.470Z,10.70
2018-10-09T07:58:44.946Z,10.80
2018-10-09T08:01:13.795Z,10.90
2018-10-09T08:03:42.686Z,11.00
2018-10-09T08:11:08.680Z,11.20
2018-10-09T08:16:06.174Z,11.20
2018-10-09T08:18:35.083Z,11.20
2018-10-09T08:30:59.222Z,11.50
2018-10-09T08:33:28.206Z,11.60
2018-10-09T08:35:57.163Z,11.60
2018-10-09T08:38:26.062Z,11.70
2018-10-09T08:48:20.608Z,12.00
2018-10-09T08:53:18.106Z,12.00
2018-10-09T08:58:15.547Z,12.20
2018-10-09T09:03:12.986Z,12.30
2018-10-09T09:10:39.076Z,12.50
2018-10-09T09:13:08.154Z,12.50
2018-10-09T09:27:59.908Z,13.10
2018-10-09T09:30:28.895Z,13.20
2018-10-09T09:37:54.867Z,13.60
2018-10-09T09:40:23.771Z,13.70
2018-10-09T09:45:21.246Z,13.80
2018-10-09T09:47:50.147Z,13.90
2018-10-09T09:50:19.082Z,13.90
2018-10-09T09:52:47.942Z,14.00
2018-10-09T09:57:45.494Z,14.00
2018-10-09T10:00:19.769Z,13.90
2018-10-09T10:02:48.683Z,13.90
2018-10-09T10:07:46.167Z,13.90
2018-10-09T10:10:15.067Z,13.80
2018-10-09T10:12:44.222Z,13.80
2018-10-09T10:15:13.096Z,13.70
2018-10-09T10:30:05.186Z,13.70
2018-10-09T10:32:34.096Z,13.70
2018-10-09T10:35:03.028Z,13.90
2018-10-09T10:40:00.479Z,13.90
2018-10-09T10:42:29.375Z,14.00
2018-10-09T10:44:58.279Z,13.90
2018-10-09T10:54:52.851Z,14.10
2018-10-09T10:57:21.749Z,14.10
2018-10-09T10:59:50.759Z,14.10
2018-10-09T11:04:48.482Z,14.20
2018-10-09T11:07:17.374Z,14.30
2018-10-09T11:09:46.282Z,14.30
2018-10-09T11:12:15.207Z,14.40
2018-10-09T11:14:44.135Z,14.50
2018-10-09T11:17:13.019Z,14.50
2018-10-09T11:19:41.970Z,14.60
2018-10-09T11:22:10.909Z,14.70
2018-10-09T11:24:39.839Z,14.70
2018-10-09T11:27:08.890Z,14.90
2018-10-09T11:29:38.544Z,15.00
2018-10-09T11:32:07.450Z,15.00
2018-10-09T11:34:36.659Z,15.10
2018-10-09T11:39:34.260Z,15.20
2018-10-09T11:42:03.147Z,15.40
2018-10-09T11:44:32.042Z,15.60
2018-10-09T11:47:00.942Z,15.70
2018-10-09T11:49:29.872Z,15.90
2018-10-09T11:51:58.809Z,16.00
2018-10-09T11:54:27.683Z,16.10
2018-10-09T11:56:56.598Z,16.20
2018-10-09T11:59:25.506Z,16.30
2018-10-09T12:01:54.422Z,16.40
2018-10-09T12:04:23.314Z,16.50
2018-10-09T12:06:52.198Z,16.70
2018-10-09T12:09:21.111Z,16.80
2018-10-09T12:11:50.242Z,16.80
2018-10-09T12:14:19.024Z,17.10
2018-10-09T12:16:47.937Z,17.00
2018-10-09T12:19:16.842Z,17.20
2018-10-09T12:21:45.772Z,17.20
2018-10-09T12:24:14.881Z,17.30
2018-10-09T12:26:43.768Z,17.40
2018-10-09T12:29:12.702Z,17.50
2018-10-09T12:31:41.599Z,17.60
2018-10-09T12:34:10.596Z,17.60
2018-10-09T12:36:39.464Z,17.70
2018-10-09T12:39:10.440Z,17.90
2018-10-09T12:41:39.347Z,17.90
2018-10-09T12:44:08.391Z,18.00
2018-10-09T12:46:37.994Z,18.00
2018-10-09T12:49:07.055Z,17.90
2018-10-09T12:51:35.930Z,18.00
2018-10-09T12:54:04.791Z,18.00
2018-10-09T12:56:33.665Z,18.00
2018-10-09T12:59:02.570Z,18.00
2018-10-09T13:01:31.410Z,18.10
2018-10-09T13:04:00.273Z,18.10
2018-10-09T13:06:29.157Z,18.20
2018-10-09T13:08:58.042Z,18.20
2018-10-09T13:11:27.062Z,18.30
2018-10-09T13:13:55.934Z,18.40
2018-10-09T13:16:24.822Z,18.40
2018-10-09T13:18:53.716Z,18.40
2018-10-09T13:21:22.682Z,18.50
2018-10-09T13:23:51.505Z,18.50
2018-10-09T13:26:20.378Z,18.60
2018-10-09T13:28:49.294Z,18.60
2018-10-09T13:31:18.163Z,18.60
2018-10-09T13:33:47.005Z,18.60
2018-10-09T13:36:15.894Z,18.60
2018-10-09T13:38:44.754Z,18.70
2018-10-09T13:41:13.728Z,18.70
2018-10-09T13:43:42.510Z,18.80
2018-10-09T13:46:11.388Z,18.90
2018-10-09T13:48:40.246Z,18.90
2018-10-09T13:51:09.126Z,18.90
2018-10-09T13:53:38.016Z,19.00
2018-10-09T13:56:06.923Z,19.00
2018-10-09T13:58:35.797Z,19.00
2018-10-09T14:01:04.716Z,19.00
2018-10-09T14:03:33.655Z,19.00
2018-10-09T14:06:02.537Z,19.00
2018-10-09T14:08:31.591Z,19.00
2018-10-09T14:11:00.438Z,18.90
2018-10-09T14:13:29.304Z,18.90
2018-10-09T14:15:58.170Z,18.90
2018-10-09T14:18:27.041Z,18.90
2018-10-09T14:20:55.922Z,19.00
2018-10-09T14:23:24.833Z,19.00
2018-10-09T14:25:54.549Z,18.90
2018-10-09T14:28:23.413Z,19.00
2018-10-09T14:30:52.293Z,19.00
2018-10-09T14:33:21.190Z,18.90
2018-10-09T14:35:50.088Z,18.80
2018-10-09T14:38:18.995Z,18.80
2018-10-09T14:40:47.886Z,18.70
2018-10-09T14:43:16.758Z,18.60
2018-10-09T14:45:45.625Z,18.70
2018-10-09T14:48:14.499Z,18.60
2018-10-09T14:50:43.378Z,18.60
2018-10-09T14:53:12.254Z,18.60
2018-10-09T14:55:41.117Z,18.60
2018-10-09T14:58:10.038Z,18.60
2018-10-09T15:00:38.893Z,18.50
2018-10-09T15:03:07.810Z,18.50
2018-10-09T15:05:36.622Z,18.50
2018-10-09T15:08:05.714Z,18.50
2018-10-09T15:10:34.594Z,18.50
2018-10-09T15:13:03.485Z,18.50
2018-10-09T15:15:32.377Z,18.40
2018-10-09T15:18:01.230Z,18.40
2018-10-09T15:20:30.138Z,18.40
2018-10-09T15:22:59.000Z,18.40
2018-10-09T15:25:28.608Z,18.40
2018-10-09T15:27:57.434Z,18.30
2018-10-09T15:30:26.285Z,18.30
2018-10-09T15:32:55.138Z,18.20
2018-10-09T15:35:24.126Z,18.20
2018-10-09T15:37:53.010Z,18.10
2018-10-09T15:40:21.898Z,18.10
2018-10-09T15:42:50.786Z,18.10
2018-10-09T15:45:19.750Z,18.00
2018-10-09T15:47:48.632Z,18.00
2018-10-09T15:50:17.539Z,17.90
2018-10-09T15:52:46.493Z,17.90
2018-10-09T15:55:15.302Z,17.90
2018-10-09T15:57:44.178Z,17.80
2018-10-09T16:00:13.050Z,17.80
2018-10-09T16:02:41.921Z,17.70
2018-10-09T16:05:10.807Z,17.70
2018-10-09T16:07:39.678Z,17.70
2018-10-09T16:10:08.567Z,17.60
2018-10-09T16:12:37.451Z,17.50
2018-10-09T16:15:06.341Z,17.50
2018-10-09T16:17:35.218Z,17.40
2018-10-09T16:20:04.771Z,17.40
2018-10-09T16:22:33.726Z,17.30
2018-10-09T16:25:02.606Z,17.20
2018-10-09T16:27:31.510Z,17.20
2018-10-09T16:30:00.400Z,17.10
2018-10-09T16:32:29.312Z,17.00
2018-10-09T16:34:58.154Z,17.00
2018-10-09T16:37:27.005Z,16.90
2018-10-09T16:39:55.895Z,16.80
2018-10-09T16:42:24.772Z,16.80
2018-10-09T16:44:53.610Z,16.70
2018-10-09T16:47:22.494Z,16.60
2018-10-09T16:49:51.363Z,16.60
2018-10-09T16:52:20.230Z,16.50
2018-10-09T16:54:49.133Z,16.40
2018-10-09T16:57:18.022Z,16.40
2018-10-09T16:59:46.878Z,16.30
2018-10-09T17:02:15.799Z,16.30
2018-10-09T17:04:44.658Z,16.20
2018-10-09T17:07:13.533Z,16.10
2018-10-09T17:09:42.389Z,16.10
2018-10-09T17:12:11.264Z,15.90
2018-10-09T17:14:40.230Z,15.90
2018-10-09T17:17:09.218Z,15.80
2018-10-09T17:22:06.886Z,15.60
2018-10-09T17:24:35.738Z,15.60
2018-10-09T17:27:04.603Z,15.50
2018-10-09T17:29:33.454Z,15.50
2018-10-09T17:32:02.341Z,15.40
2018-10-09T17:34:31.226Z,15.40
2018-10-09T17:37:00.111Z,15.30
2018-10-09T17:39:28.990Z,15.20
2018-10-09T17:41:57.915Z,15.20
2018-10-09T17:44:26.761Z,15.00
2018-10-09T17:46:55.693Z,15.10
2018-10-09T17:49:24.520Z,15.00
2018-10-09T17:51:53.436Z,15.00
2018-10-09T17:54:22.278Z,15.00
2018-10-09T17:56:51.177Z,14.90
2018-10-09T18:04:17.258Z,14.80
2018-10-09T18:09:14.681Z,14.60
2018-10-09T18:14:12.458Z,14.60
2018-10-09T18:16:41.356Z,14.50
2018-10-09T18:19:10.243Z,14.50
2018-10-09T18:21:39.127Z,14.50
2018-10-09T18:26:36.676Z,14.40
2018-10-09T18:31:34.142Z,14.30
2018-10-09T18:39:00.091Z,14.20
2018-10-09T18:43:57.551Z,14.10
2018-10-09T18:46:26.435Z,14.10
2018-10-09T18:48:55.317Z,14.10
2018-10-09T18:51:24.266Z,14.00
2018-10-09T18:53:53.102Z,13.90
2018-10-09T18:56:21.982Z,13.80
2018-10-09T19:01:19.414Z,13.80
2018-10-09T19:03:48.335Z,13.80
2018-10-09T19:06:17.222Z,13.70
2018-10-09T19:08:46.097Z,13.60
2018-10-09T19:11:15.058Z,13.60
2018-10-09T19:16:12.471Z,13.70
2018-10-09T19:21:09.883Z,13.60
2018-10-09T19:26:07.374Z,13.50
2018-10-09T19:28:36.242Z,13.50
2018-10-09T19:31:05.152Z,13.50
2018-10-09T19:36:02.578Z,13.40
2018-10-09T19:38:31.526Z,13.40
2018-10-09T19:41:00.426Z,13.40
2018-10-09T19:43:29.315Z,13.30
2018-10-09T19:45:58.189Z,13.20
2018-10-09T19:48:27.074Z,13.20
2018-10-09T19:53:24.506Z,13.20
2018-10-09T20:00:50.825Z,13.10
2018-10-09T20:10:45.438Z,13.00
2018-10-09T20:13:14.390Z,13.00
2018-10-09T20:15:43.270Z,12.90
2018-10-09T20:23:09.697Z,12.90
2018-10-09T20:30:35.690Z,12.80
2018-10-09T20:33:06.586Z,12.80
2018-10-09T20:35:35.486Z,12.80
2018-10-09T20:40:34.417Z,12.80
2018-10-09T20:43:03.307Z,12.70
2018-10-09T20:45:32.238Z,12.70
2018-10-09T20:50:29.649Z,12.70
2018-10-09T20:55:27.066Z,12.70
2018-10-09T21:12:47.274Z,12.50
2018-10-09T21:15:16.170Z,12.60
2018-10-09T21:17:45.219Z,12.50
2018-10-09T21:22:42.470Z,12.50
2018-10-09T21:30:08.440Z,12.50
2018-10-09T21:32:37.357Z,12.40
2018-10-09T21:45:00.470Z,12.40
2018-10-09T21:49:57.901Z,12.30
2018-10-09T21:52:26.828Z,12.30
2018-10-09T22:09:47.346Z,12.30
2018-10-09T22:12:16.242Z,12.20
2018-10-09T22:14:45.134Z,12.20
2018-10-09T22:19:42.541Z,12.20
2018-10-09T22:27:08.703Z,12.10
2018-10-09T22:37:03.311Z,12.10
2018-10-09T22:42:00.695Z,12.00
2018-10-09T22:44:29.578Z,12.10
2018-10-09T23:09:15.558Z,12.10
2018-10-09T23:14:14.607Z,12.10
2018-10-09T23:16:43.470Z,12.10
2018-10-09T23:24:09.523Z,12.10
2018-10-09T23:29:06.918Z,12.10
2018-10-09T23:34:04.305Z,12.00
2018-10-09T23:41:30.250Z,11.90
2018-10-09T23:51:25.197Z,11.90
2018-10-09T23:58:51.138Z,11.80
